createdAt,value
2018-12-02T00:01:31.075Z,125.17
2018-12-02T00:03:59.934Z,133.10
2018-12-02T00:06:29.175Z,119.87
2018-12-02T00:08:58.739Z,129.10
2018-12-02T00:11:28.419Z,120.80
2018-12-02T00:13:58.935Z,116.83
2018-12-02T00:16:28.133Z,123.73
2018-12-02T00:18:57.644Z,116.43
2018-12-02T00:21:27.242Z,119.20
2018-12-02T00:23:57.331Z,114.97
2018-12-02T00:26:26.535Z,104.43
2018-12-02T00:28:56.007Z,123.30
2018-12-02T00:31:25.557Z,123.93
2018-12-02T00:33:55.119Z,123.40
2018-12-02T00:36:24.715Z,117.30
2018-12-02T00:38:54.295Z,115.47
2018-12-02T00:41:23.915Z,122.50
2018-12-02T00:43:53.489Z,125.10
2018-12-02T00:46:22.678Z,123.47
2018-12-02T00:48:52.165Z,119.10
2018-12-02T00:51:22.079Z,107.73
2018-12-02T00:53:51.254Z,116.90
2018-12-02T00:56:19.710Z,112.27
2018-12-02T00:58:49.246Z,112.23
2018-12-02T01:01:18.807Z,117.67
2018-12-02T01:03:48.373Z,117.93
2018-12-02T01:06:17.971Z,112.43
2018-12-02T01:08:47.545Z,115.67
2018-12-02T01:11:17.120Z,108.13
2018-12-02T01:13:46.699Z,101.63
2018-12-02T01:16:15.902Z,115.47
2018-12-02T01:18:45.417Z,110.27
2018-12-02T01:21:14.995Z,105.80
2018-12-02T01:23:44.595Z,108.47
2018-12-02T01:26:14.215Z,103.30
2018-12-02T01:28:43.396Z,103.97
2018-12-02T01:31:12.891Z,109.90
2018-12-02T01:33:42.563Z,103.97
2018-12-02T01:36:12.139Z,103.03
2018-12-02T01:38:41.772Z,97.90
2018-12-02T01:41:11.379Z,104.23
2018-12-02T01:43:40.951Z,115.73
2018-12-02T01:46:10.851Z,103.70
2018-12-02T01:48:41.471Z,106.43
2018-12-02T01:51:10.671Z,92.93
2018-12-02T01:53:39.762Z,99.50
2018-12-02T01:56:09.295Z,103.83
2018-12-02T01:58:38.894Z,95.23
2018-12-02T02:01:08.511Z,114.37
2018-12-02T02:03:37.715Z,112.67
2018-12-02T02:06:06.810Z,119.43
2018-12-02T02:08:35.987Z,113.63
2018-12-02T02:11:05.111Z,112.03
2018-12-02T02:13:34.612Z,110.97
2018-12-02T02:16:04.263Z,115.03
2018-12-02T02:18:33.850Z,94.70
2018-12-02T02:21:03.079Z,98.43
2018-12-02T02:23:32.224Z,104.93
2018-12-02T02:26:01.723Z,104.50
2018-12-02T02:28:31.292Z,96.63
2018-12-02T02:31:01.067Z,95.43
2018-12-02T02:33:30.683Z,100.03
2018-12-02T02:35:59.866Z,107.37
2018-12-02T02:38:29.412Z,105.40
2018-12-02T02:40:58.597Z,97.60
2018-12-02T02:43:28.076Z,98.13
2018-12-02T02:45:57.659Z,105.07
2018-12-02T02:48:27.232Z,107.93
2018-12-02T02:50:56.875Z,87.97
2018-12-02T02:53:26.451Z,100.87
2018-12-02T02:55:56.063Z,88.90
2018-12-02T02:58:25.630Z,84.93
2018-12-02T03:00:55.197Z,84.63
2018-12-02T03:03:25.107Z,85.10
2018-12-02T03:05:54.720Z,86.97
2018-12-02T03:08:23.967Z,82.13
2018-12-02T03:10:53.507Z,88.50
2018-12-02T03:13:23.095Z,78.70
2018-12-02T03:15:52.715Z,83.97
2018-12-02T03:18:21.662Z,95.07
2018-12-02T03:20:50.771Z,77.43
2018-12-02T03:23:20.284Z,82.83
2018-12-02T03:25:49.491Z,86.50
2018-12-02T03:28:18.610Z,68.93
2018-12-02T03:30:47.718Z,74.57
2018-12-02T03:33:17.206Z,72.40
2018-12-02T03:35:46.595Z,69.70
2018-12-02T03:38:16.075Z,75.83
2018-12-02T03:40:45.669Z,76.33
2018-12-02T03:43:15.510Z,67.50
2018-12-02T03:45:45.664Z,68.57
2018-12-02T03:48:14.881Z,68.80
2018-12-02T03:50:44.391Z,66.60
2018-12-02T03:53:13.979Z,71.43
2018-12-02T03:55:43.575Z,67.20
2018-12-02T03:58:14.182Z,62.27
2018-12-02T04:00:43.788Z,63.90
2018-12-02T04:03:13.018Z,67.87
2018-12-02T04:05:42.527Z,54.10
2018-12-02T04:08:12.148Z,62.47
2018-12-02T04:10:41.386Z,51.97
2018-12-02T04:13:10.916Z,56.70
2018-12-02T04:15:41.328Z,56.97
2018-12-02T04:18:11.508Z,60.77
2018-12-02T04:20:41.107Z,55.83
2018-12-02T04:23:10.696Z,52.20
2018-12-02T04:25:39.891Z,57.20
2018-12-02T04:28:09.394Z,53.03
2018-12-02T04:30:38.990Z,51.83
2018-12-02T04:33:08.215Z,51.77
2018-12-02T04:35:37.716Z,49.27
2018-12-02T04:38:07.303Z,53.17
2018-12-02T04:40:36.923Z,58.30
2018-12-02T04:43:06.961Z,56.00
2018-12-02T04:45:36.603Z,57.80
2018-12-02T04:48:05.923Z,53.57
2018-12-02T04:50:35.463Z,46.97
2018-12-02T04:53:04.955Z,50.07
2018-12-02T04:55:34.055Z,45.37
2018-12-02T04:58:03.592Z,42.83
2018-12-02T05:00:33.241Z,42.30
2018-12-02T05:03:02.759Z,41.83
2018-12-02T05:05:32.035Z,41.77
2018-12-02T05:08:01.532Z,44.07
2018-12-02T05:10:31.091Z,46.20
2018-12-02T05:13:00.688Z,42.03
2018-12-02T05:15:29.907Z,41.13
2018-12-02T05:17:59.116Z,41.07
2018-12-02T05:20:29.280Z,42.07
2018-12-02T05:22:58.494Z,41.73
2018-12-02T05:25:28.019Z,42.40
2018-12-02T05:27:57.604Z,39.20
2018-12-02T05:30:27.175Z,40.93
2018-12-02T05:32:56.412Z,41.00
2018-12-02T05:35:25.895Z,41.20
2018-12-02T05:37:55.595Z,35.00
2018-12-02T05:40:25.221Z,39.97
2018-12-02T05:42:54.924Z,37.03
2018-12-02T05:45:25.456Z,42.30
2018-12-02T05:47:55.967Z,37.93
2018-12-02T05:50:31.305Z,39.83
2018-12-02T05:53:00.818Z,42.47
2018-12-02T05:55:33.040Z,48.60
2018-12-02T05:58:08.726Z,45.67
2018-12-02T06:00:41.473Z,46.17
2018-12-02T06:03:12.899Z,45.40
2018-12-02T06:05:46.271Z,42.00
2018-12-02T06:08:17.155Z,44.53
2018-12-02T06:10:47.751Z,38.60
2018-12-02T06:13:18.827Z,36.73
2018-12-02T06:15:48.338Z,43.60
2018-12-02T06:18:17.871Z,44.57
2018-12-02T06:20:47.443Z,45.27
2018-12-02T06:23:16.971Z,39.90
2018-12-02T06:25:46.652Z,47.23
2018-12-02T06:28:16.158Z,48.73
2018-12-02T06:30:45.686Z,41.73
2018-12-02T06:33:15.232Z,42.13
2018-12-02T06:35:45.512Z,42.87
2018-12-02T06:38:16.354Z,32.73
2018-12-02T06:40:45.911Z,41.13
2018-12-02T06:43:15.442Z,42.00
2018-12-02T06:45:45.295Z,47.73
2018-12-02T06:48:14.843Z,42.17
2018-12-02T06:50:44.399Z,42.67
2018-12-02T06:53:13.972Z,74.27
2018-12-02T06:55:55.234Z,131.07
2018-12-02T06:58:33.754Z,91.27
2018-12-02T07:01:11.708Z,57.50
2018-12-02T07:03:50.446Z,68.30
2018-12-02T07:06:20.013Z,50.67
2018-12-02T07:08:49.763Z,41.00
2018-12-02T07:11:19.452Z,43.03
2018-12-02T07:13:48.987Z,36.63
2018-12-02T07:16:18.570Z,40.40
2018-12-02T07:18:47.753Z,34.97
2018-12-02T07:21:19.225Z,40.83
2018-12-02T07:23:51.809Z,38.37
2018-12-02T07:26:22.076Z,42.73
2018-12-02T07:28:51.703Z,40.73
2018-12-02T07:31:21.227Z,39.50
2018-12-02T07:34:10.042Z,45.33
2018-12-02T07:36:59.031Z,38.83
2018-12-02T07:39:58.210Z,40.17
2018-12-02T07:42:27.746Z,43.33
2018-12-02T07:44:57.442Z,41.77
2018-12-02T07:47:27.284Z,48.00
2018-12-02T07:49:56.795Z,44.73
2018-12-02T07:52:26.539Z,44.47
2018-12-02T07:54:56.124Z,46.97
2018-12-02T07:57:25.678Z,39.10
2018-12-02T07:59:55.401Z,36.83
2018-12-02T08:02:25.233Z,37.83
2018-12-02T08:04:54.791Z,34.00
2018-12-02T08:07:23.986Z,38.20
2018-12-02T08:09:53.086Z,35.73
2018-12-02T08:12:22.538Z,34.97
2018-12-02T08:14:52.087Z,31.37
2018-12-02T08:17:21.661Z,30.23
2018-12-02T08:19:51.206Z,31.93
2018-12-02T08:22:21.719Z,33.43
2018-12-02T08:24:52.115Z,31.67
2018-12-02T08:27:21.731Z,35.17
2018-12-02T08:29:51.415Z,36.27
2018-12-02T08:32:20.971Z,34.10
2018-12-02T08:34:50.506Z,35.43
2018-12-02T08:37:20.060Z,36.63
2018-12-02T08:39:49.708Z,40.80
2018-12-02T08:45:03.229Z,35.27
2018-12-02T08:47:32.803Z,35.47
2018-12-02T08:50:01.983Z,35.53
2018-12-02T08:52:31.517Z,35.70
2018-12-02T08:55:01.118Z,32.73
2018-12-02T08:57:30.652Z,32.47
2018-12-02T09:00:00.253Z,38.73
2018-12-02T09:02:29.413Z,33.20
2018-12-02T09:04:58.963Z,34.37
2018-12-02T09:07:29.525Z,36.70
2018-12-02T09:09:59.727Z,39.03
2018-12-02T09:12:28.695Z,32.50
2018-12-02T09:14:58.227Z,37.23
2018-12-02T09:17:27.930Z,34.53
2018-12-02T09:19:57.078Z,37.93
2018-12-02T09:22:26.528Z,32.83
2018-12-02T09:24:55.710Z,32.30
2018-12-02T09:27:25.259Z,30.37
2018-12-02T09:29:54.864Z,36.47
2018-12-02T09:32:24.420Z,33.63
2018-12-02T09:34:53.642Z,32.77
2018-12-02T09:37:23.107Z,30.87
2018-12-02T09:39:52.642Z,29.57
2018-12-02T09:42:22.232Z,25.97
2018-12-02T09:44:51.775Z,27.37
2018-12-02T09:47:21.483Z,25.57
2018-12-02T09:49:51.058Z,24.93
2018-12-02T09:52:20.726Z,28.67
2018-12-02T09:54:50.333Z,28.63
2018-12-02T09:57:19.875Z,30.53
2018-12-02T09:59:49.433Z,28.33
2018-12-02T10:02:19.039Z,27.27
2018-12-02T10:04:48.648Z,28.67
2018-12-02T10:07:18.195Z,27.67
2018-12-02T10:09:47.791Z,30.73
2018-12-02T10:12:17.871Z,26.43
2018-12-02T10:14:47.499Z,29.57
2018-12-02T10:17:17.036Z,29.87
2018-12-02T10:19:46.581Z,24.70
2018-12-02T10:22:16.187Z,25.10
2018-12-02T10:24:45.730Z,27.20
2018-12-02T10:27:15.272Z,27.47
2018-12-02T10:29:44.482Z,31.20
2018-12-02T10:32:13.932Z,32.87
2018-12-02T10:34:43.495Z,29.40
2018-12-02T10:37:13.087Z,31.03
2018-12-02T10:39:42.646Z,28.33
2018-12-02T10:42:12.184Z,24.90
2018-12-02T10:44:41.390Z,29.17
2018-12-02T10:47:10.858Z,28.20
2018-12-02T10:49:40.406Z,30.27
2018-12-02T10:52:10.022Z,31.17
2018-12-02T10:54:39.595Z,32.10
2018-12-02T10:57:08.770Z,26.00
2018-12-02T10:59:38.316Z,31.60
2018-12-02T11:02:12.302Z,29.13
2018-12-02T11:04:41.889Z,28.43
2018-12-02T11:07:11.072Z,29.33
2018-12-02T11:09:40.531Z,29.70
2018-12-02T11:12:10.119Z,28.67
2018-12-02T11:14:39.759Z,32.97
2018-12-02T11:17:08.934Z,24.10
2018-12-02T11:19:38.423Z,25.10
2018-12-02T11:22:07.976Z,23.83
2018-12-02T11:24:37.513Z,25.60
2018-12-02T11:27:07.463Z,24.70
2018-12-02T11:29:37.044Z,27.17
2018-12-02T11:32:06.852Z,23.57
2018-12-02T11:34:36.002Z,24.07
2018-12-02T11:37:06.076Z,26.97
2018-12-02T11:39:35.632Z,29.40
2018-12-02T11:42:05.611Z,27.77
2018-12-02T11:44:35.144Z,28.23
2018-12-02T11:47:04.723Z,27.93
2018-12-02T11:49:34.291Z,21.90
2018-12-02T11:52:03.962Z,23.87
2018-12-02T11:54:33.551Z,23.27
2018-12-02T11:57:02.722Z,23.00
2018-12-02T11:59:31.790Z,27.30
2018-12-02T12:02:01.670Z,27.70
2018-12-02T12:04:31.214Z,30.50
2018-12-02T12:07:00.755Z,31.07
2018-12-02T12:09:30.287Z,28.37
2018-12-02T12:11:59.522Z,28.97
2018-12-02T12:14:28.979Z,31.10
2018-12-02T12:16:58.584Z,31.97
2018-12-02T12:19:28.127Z,29.93
2018-12-02T12:21:57.671Z,31.43
2018-12-02T12:24:27.223Z,26.40
2018-12-02T12:26:56.781Z,26.77
2018-12-02T12:29:26.690Z,23.60
2018-12-02T12:31:56.391Z,31.53
2018-12-02T12:34:25.955Z,28.23
2018-12-02T12:36:55.506Z,26.50
2018-12-02T12:39:25.079Z,24.50
2018-12-02T12:41:54.632Z,27.27
2018-12-02T12:44:24.779Z,27.10
2018-12-02T12:46:54.307Z,26.93
2018-12-02T12:49:23.862Z,25.30
2018-12-02T12:51:53.419Z,26.87
2018-12-02T12:54:22.991Z,23.80
2018-12-02T12:56:52.541Z,23.83
2018-12-02T12:59:22.442Z,22.53
2018-12-02T13:01:51.979Z,21.03
2018-12-02T13:04:21.571Z,24.07
2018-12-02T13:06:50.859Z,23.43
2018-12-02T13:09:20.415Z,22.23
2018-12-02T13:11:50.107Z,24.00
2018-12-02T13:14:19.655Z,24.70
2018-12-02T13:16:49.214Z,26.60
2018-12-02T13:19:18.755Z,29.90
2018-12-02T13:21:48.568Z,35.03
2018-12-02T13:24:17.839Z,31.47
2018-12-02T13:26:47.375Z,25.97
2018-12-02T13:29:17.255Z,25.60
2018-12-02T13:31:46.791Z,23.13
2018-12-02T13:34:16.347Z,26.23
2018-12-02T13:36:45.919Z,31.77
2018-12-02T13:39:15.459Z,24.67
2018-12-02T13:41:45.003Z,27.23
2018-12-02T13:44:14.547Z,24.47
2018-12-02T13:46:44.085Z,26.50
2018-12-02T13:49:13.675Z,27.17
2018-12-02T13:51:43.211Z,27.67
2018-12-02T13:54:18.114Z,27.53
2018-12-02T13:56:47.671Z,27.03
2018-12-02T13:59:17.215Z,29.10
2018-12-02T14:01:46.771Z,31.87
2018-12-02T14:04:16.936Z,28.57
2018-12-02T14:06:45.891Z,26.60
2018-12-02T14:09:15.426Z,28.83
2018-12-02T14:11:45.262Z,31.03
2018-12-02T14:14:14.952Z,32.33
2018-12-02T14:17:05.987Z,28.73
2018-12-02T14:19:35.599Z,26.80
2018-12-02T14:22:05.418Z,29.53
2018-12-02T14:24:34.967Z,31.63
2018-12-02T14:27:04.555Z,35.30
2018-12-02T14:29:44.367Z,36.10
2018-12-02T14:32:15.435Z,33.70
2018-12-02T14:34:45.017Z,34.83
2018-12-02T14:37:14.963Z,41.73
2018-12-02T14:39:44.527Z,46.60
2018-12-02T14:42:14.132Z,38.53
2018-12-02T14:44:43.687Z,32.97
2018-12-02T14:47:13.252Z,36.57
2018-12-02T14:49:42.794Z,36.73
2018-12-02T14:52:12.337Z,32.00
2018-12-02T14:54:41.882Z,34.47
2018-12-02T14:57:11.431Z,33.10
2018-12-02T14:59:40.990Z,35.77
2018-12-02T15:02:10.550Z,44.73
2018-12-02T15:04:40.087Z,40.10
2018-12-02T15:07:09.659Z,39.33
2018-12-02T15:09:39.227Z,41.30
2018-12-02T15:12:08.775Z,43.40
2018-12-02T15:14:38.324Z,52.73
2018-12-02T15:17:07.915Z,49.83
2018-12-02T15:19:37.455Z,56.07
2018-12-02T15:22:07.748Z,49.07
2018-12-02T15:24:37.290Z,47.30
2018-12-02T15:27:06.830Z,53.20
2018-12-02T15:29:36.382Z,53.23
2018-12-02T15:32:06.339Z,56.67
2018-12-02T15:34:35.895Z,65.30
2018-12-02T15:37:05.323Z,56.10
2018-12-02T15:39:34.541Z,49.97
2018-12-02T15:42:04.211Z,56.67
2018-12-02T15:44:33.803Z,53.07
2018-12-02T15:47:03.403Z,44.53
2018-12-02T15:49:32.947Z,44.00
2018-12-02T15:52:02.531Z,42.43
2018-12-02T15:54:32.152Z,40.20
2018-12-02T15:57:01.719Z,45.03
2018-12-02T15:59:31.263Z,39.23
2018-12-02T16:02:00.807Z,46.07
2018-12-02T16:04:30.355Z,45.60
2018-12-02T16:06:59.932Z,39.97
2018-12-02T16:09:29.813Z,39.40
2018-12-02T16:11:59.688Z,38.63
2018-12-02T16:14:29.269Z,36.30
2018-12-02T16:16:58.833Z,38.37
2018-12-02T16:19:28.387Z,36.53
2018-12-02T16:21:57.976Z,40.17
2018-12-02T16:24:27.539Z,39.73
2018-12-02T16:26:57.083Z,37.60
2018-12-02T16:29:26.943Z,45.20
2018-12-02T16:31:56.519Z,43.03
2018-12-02T16:34:26.095Z,43.53
2018-12-02T16:36:55.663Z,42.83
2018-12-02T16:39:25.207Z,43.50
2018-12-02T16:41:55.191Z,45.73
2018-12-02T16:44:24.795Z,44.97
2018-12-02T16:46:54.338Z,40.73
2018-12-02T16:49:23.879Z,43.40
2018-12-02T16:51:53.774Z,45.17
2018-12-02T16:54:23.708Z,44.13
2018-12-02T16:56:53.303Z,46.80
2018-12-02T16:59:26.797Z,43.33
2018-12-02T17:02:04.950Z,42.83
2018-12-02T17:04:29.858Z,49.17
2018-12-02T17:06:59.486Z,42.23
2018-12-02T17:09:29.106Z,50.63
2018-12-02T17:11:58.659Z,53.53
2018-12-02T17:14:28.215Z,50.70
2018-12-02T17:16:58.298Z,50.57
2018-12-02T17:19:32.317Z,55.03
2018-12-02T17:22:02.534Z,45.67
2018-12-02T17:24:32.019Z,53.13
2018-12-02T17:27:01.183Z,54.97
2018-12-02T17:29:30.282Z,52.77
2018-12-02T17:32:07.918Z,47.33
2018-12-02T17:34:37.515Z,55.90
2018-12-02T17:37:06.923Z,52.10
2018-12-02T17:39:38.041Z,50.03
2018-12-02T17:42:10.178Z,56.03
2018-12-02T17:44:40.110Z,55.80
2018-12-02T17:47:09.314Z,59.23
2018-12-02T17:49:39.984Z,58.17
2018-12-02T17:52:09.595Z,57.57
2018-12-02T17:54:54.307Z,56.23
2018-12-02T17:57:23.975Z,58.00
2018-12-02T17:59:53.567Z,52.83
2018-12-02T18:02:23.198Z,60.40
2018-12-02T18:04:52.908Z,54.73
2018-12-02T18:07:22.599Z,52.63
2018-12-02T18:09:51.839Z,54.43
2018-12-02T18:12:21.367Z,58.87
2018-12-02T18:14:50.609Z,52.47
2018-12-02T18:17:20.156Z,60.77
2018-12-02T18:19:49.791Z,67.10
2018-12-02T18:22:19.467Z,85.53
2018-12-02T18:24:49.160Z,72.73
2018-12-02T18:27:18.489Z,62.57
2018-12-02T18:29:48.020Z,68.73
2018-12-02T18:32:17.688Z,61.03
2018-12-02T18:34:47.303Z,59.23
2018-12-02T18:37:16.568Z,63.07
2018-12-02T18:39:45.693Z,60.57
2018-12-02T18:42:15.016Z,68.27
2018-12-02T18:44:44.286Z,63.97
2018-12-02T18:47:13.389Z,74.77
2018-12-02T18:49:42.610Z,72.90
2018-12-02T18:52:12.132Z,74.57
2018-12-02T18:54:41.374Z,95.60
2018-12-02T18:57:10.481Z,92.10
2018-12-02T18:59:39.600Z,90.93
2018-12-02T19:02:08.772Z,121.80
2018-12-02T19:04:39.734Z,139.07
2018-12-02T19:07:09.357Z,124.60
2018-12-02T19:09:38.894Z,128.93
2018-12-02T19:12:08.471Z,107.67
2018-12-02T19:14:38.062Z,103.03
2018-12-02T19:17:07.626Z,81.63
2018-12-02T19:19:37.246Z,72.77
2018-12-02T19:22:07.798Z,72.30
2018-12-02T19:24:37.372Z,69.03
2018-12-02T19:27:07.175Z,74.57
2018-12-02T19:29:36.746Z,67.03
2018-12-02T19:32:06.771Z,74.37
2018-12-02T19:34:36.306Z,65.33
2018-12-02T19:37:08.196Z,63.57
2018-12-02T19:39:37.586Z,68.90
2018-12-02T19:42:07.118Z,65.17
2018-12-02T19:44:36.735Z,59.33
2018-12-02T19:47:06.584Z,53.50
2018-12-02T19:49:36.198Z,65.23
2018-12-02T19:52:06.115Z,66.23
2018-12-02T19:54:35.655Z,75.97
2018-12-02T19:57:05.443Z,79.20
2018-12-02T19:59:34.987Z,72.20
2018-12-02T20:02:04.595Z,87.87
2018-12-02T20:04:34.171Z,86.00
2018-12-02T20:07:03.871Z,77.70
2018-12-02T20:09:33.433Z,87.30
2018-12-02T20:12:03.119Z,72.30
2018-12-02T20:14:32.295Z,61.50
2018-12-02T20:17:01.755Z,61.00
2018-12-02T20:19:36.587Z,66.43
2018-12-02T20:22:07.052Z,59.27
2018-12-02T20:24:39.530Z,60.33
2018-12-02T20:27:09.487Z,62.20
2018-12-02T20:29:39.058Z,57.13
2018-12-02T20:32:11.049Z,64.30
2018-12-02T20:34:40.972Z,50.27
2018-12-02T20:37:10.586Z,53.50
2018-12-02T20:39:40.539Z,45.50
2018-12-02T20:42:09.727Z,50.23
2018-12-02T20:44:39.258Z,47.67
2018-12-02T20:47:08.874Z,52.00
2018-12-02T20:49:38.423Z,47.13
2018-12-02T20:52:08.015Z,45.87
2018-12-02T20:54:37.567Z,45.30
2018-12-02T20:57:07.139Z,47.70
2018-12-02T20:59:37.975Z,51.87
2018-12-02T21:02:07.651Z,52.77
2018-12-02T21:04:37.265Z,48.93
2018-12-02T21:07:07.875Z,53.67
2018-12-02T21:09:37.436Z,50.67
2018-12-02T21:12:07.155Z,53.47
2018-12-02T21:14:36.711Z,55.73
2018-12-02T21:17:06.579Z,49.07
2018-12-02T21:19:36.160Z,50.20
2018-12-02T21:22:05.607Z,44.33
2018-12-02T21:24:35.089Z,50.47
2018-12-02T21:27:04.698Z,45.57
2018-12-02T21:29:34.893Z,58.13
2018-12-02T21:32:04.471Z,52.80
2018-12-02T21:34:34.675Z,50.60
2018-12-02T21:37:04.967Z,50.30
2018-12-02T21:39:34.701Z,46.60
2018-12-02T21:42:04.291Z,53.70
2018-12-02T21:44:34.223Z,50.33
2018-12-02T21:47:03.848Z,54.60
2018-12-02T21:49:34.375Z,51.37
2018-12-02T21:52:04.130Z,46.90
2018-12-02T21:54:33.683Z,51.80
2018-12-02T21:57:03.340Z,45.10
2018-12-02T21:59:33.149Z,45.40
2018-12-02T22:02:02.735Z,48.53
2018-12-02T22:04:32.294Z,46.20
2018-12-02T22:07:01.843Z,49.63
2018-12-02T22:09:31.386Z,43.30
2018-12-02T22:12:00.943Z,45.63
2018-12-02T22:14:30.503Z,44.87
2018-12-02T22:17:00.047Z,48.47
2018-12-02T22:19:29.631Z,44.60
2018-12-02T22:21:59.204Z,40.07
2018-12-02T22:24:28.763Z,45.63
2018-12-02T22:26:58.311Z,41.63
2018-12-02T22:29:27.863Z,44.83
2018-12-02T22:31:57.036Z,43.17
2018-12-02T22:34:26.498Z,42.93
2018-12-02T22:36:56.047Z,38.57
2018-12-02T22:39:25.609Z,40.13
2018-12-02T22:41:55.174Z,42.00
2018-12-02T22:44:24.811Z,42.00
2018-12-02T22:46:54.385Z,40.93
2018-12-02T22:49:23.927Z,46.80
2018-12-02T22:51:53.499Z,42.60
2018-12-02T22:54:23.062Z,51.57
2018-12-02T22:56:52.615Z,50.33
2018-12-02T22:59:22.200Z,45.23
2018-12-02T23:01:57.080Z,57.33
2018-12-02T23:04:26.695Z,50.80
2018-12-02T23:06:56.267Z,47.93
2018-12-02T23:09:25.847Z,55.77
2018-12-02T23:11:55.453Z,51.57
2018-12-02T23:14:25.078Z,49.67
2018-12-02T23:17:05.745Z,58.43
2018-12-02T23:19:35.311Z,55.90
2018-12-02T23:22:04.911Z,55.17
2018-12-02T23:24:34.447Z,54.87
2018-12-02T23:27:04.027Z,48.63
2018-12-02T23:29:34.167Z,52.83
2018-12-02T23:32:03.995Z,58.10
2018-12-02T23:34:33.620Z,46.27
2018-12-02T23:37:03.196Z,66.57
2018-12-02T23:39:32.802Z,41.83
2018-12-02T23:42:02.367Z,43.50
2018-12-02T23:44:31.941Z,47.53
2018-12-02T23:47:01.550Z,44.40
2018-12-02T23:49:31.139Z,58.63
2018-12-02T23:52:00.747Z,47.77
2018-12-02T23:54:30.311Z,50.80
2018-12-02T23:56:59.891Z,46.77
2018-12-02T23:59:29.467Z,48.23
